Terminal Aerodrome Forecast
Issued by NWS

Current Version | Previous Version | Graphics & Text | Print | Product List | Glossary On
Versions: 1 2 3 4 5 6 7 8 9 10 11 12 13 14 15
272
FTUS41 KILN 281315 AAA
TAFLCK
TAF AMD
KLCK 281315Z 2813/2912 30007KT 2SM BR VCSH OVC006
     FM281600 35005KT P6SM OVC008
     FM281800 35007KT P6SM OVC015
     FM282100 01007KT P6SM BKN025
     FM290800 01006KT P6SM BKN025=

USA.gov is the U.S. government's official web portal to all federal, state and local government web resources and services.